Terminal Aerodrome Forecast
Issued by NWS

Current Version | Previous Version | Text Only | Print | Product List | Glossary Off
Versions: 1 2 3 4 5 6 7 8 9 10 11 12 13 14 15 16 17 18 19 20 21 22 23 24 25

000
FTUS41 KILN 010500 RRA
TAFLUK
TAF
KLUK 010544Z 0106/0206 25004KT 4SM BR FEW040 SCT250
     FM010800 27004KT 2SM BR FEW005
      TEMPO 0109/0112 1/2SM FG VV005
     FM011300 33004KT P6SM FEW040 SCT250
     FM011500 32007KT P6SM SCT040 BKN250
     FM020000 02004KT P6SM SCT050 SCT120 BKN250=

USA.gov is the U.S. government's official web portal to all federal, state and local government web resources and services.